Saint Louis, MO

2:10 AM CDT on September 23, 2014 (GMT -0500)
Scott Air Force Base-Midamerica | Change Station
CLOSE
Current Station
Airport
Location: Belleville,
Elevation: 456 ft
Nearby Weather Stations

Elev 456 ft 38.55 °N, 89.84 °W | Updated 2 minutes ago

Clear
Clear
50 °F
Feels Like 50 °F
N
2
Wind Variable Wind from NNE

Today
High -- | Low -- °F
--% Chance of Precip.
Yesterday
High -- | Low -- °F
Precip. -- in
6:49 AM 6:56 PM
Waning Crescent, 1% visible
Pressure 30.26 in
Visibility 3.0 miles
Clouds Clear
Dew Point 48 °F
Humidity 94%
Rainfall 0.00 in
Snow Depth Not available.
UV 0 out of 12
Pollen 6.00 out of 12
Ozone Good
PM2.5 Good
Flu Activity Not available.
SPECI KBLV 230708Z AUTO 02002KT 3SM R32R/4500FT BR CLR 10/09 A3026 RMK AO2 VIS 3/4 RWY14L

More Conditions Fewer Conditions

Pressure 30.26 in
Visibility 3.0 miles
Clouds Clear
Dew Point 48 °F
Humidity 94%
Rainfall 0.00 in
Snow Depth Not available.
UV 0 out of 12
Pollen 6.00 out of 12
Ozone Good
PM2.5 Good
Flu Activity Not available.
SPECI KBLV 230708Z AUTO 02002KT 3SM R32R/4500FT BR CLR 10/09 A3026 RMK AO2 VIS 3/4 RWY14L

More Conditions Fewer Conditions

10-Day Weather Forecast

Almanac

Astronomy

Sep. 23, 2014 Rise Set
Actual Time 6:49 AM CDT 6:56 PM CDT
Civil Twilight 6:22 AM CDT 7:22 PM CDT
Nautical Twilight 5:51 AM CDT 7:53 PM CDT
Astronomical Twilight 5:20 AM CDT 8:24 PM CDT
Moon 6:13 AM CDT 6:35 PM CDT
Length of Visible Light 12h 59m
Length of Day
12h 06m
Tomorrow will be 2m 28s shorter.
Waning Crescent, 1% of the Moon is Illuminated
Today
Waning Crescent
Sep 24
New
Oct 1
First Quarter
Oct 8
Full
Oct 15
Last Quarter

Today's Extremes

State Highs State Lows

Community

WunderPhotos

Upload Photos

1,755,608 photos uploaded!

Nearby

Air Quality

  Air Quality AQ Index Pollutant
Yesterday Good
OZONE
Yesterday Good
PM2.5
Current Good
PM2.5
Current Good
OZONE
Tuesday Good
PM2.5

Snow Depth

Station Depth Elevation
No new snow has been reported.

Earthquake Activity

City Distance Mag. Time & Date
No recent earthquake activity has been reported nearby.
Minimum magnitude displayed is 2.5.

Coastal Water Temperatures

Place Temperature
No Stations Reporting

Nearby Weather Stations